VSP282 SBSL-SBFZ
Flight info
| Callsign | VSP282 |
|---|---|
| Flight time | N/A |
| Altitude | 35000 |
| Route | KADOT UZ81 FLZ |
| Aircraft | B738/M-SDE2E3FGHIRWXY/LB1 |
Departure
| Time | N/A |
|---|---|
| Airport | Marechal Cunha Machado International Airport (SBSL) |
Arrival
| Time | 2026-04-30 04:19 |
|---|---|
| Airport | Pinto Martins International Airport (SBFZ) |
| Time | Latitude | Longitude | Altitude | Speed | Heading |
|---|---|---|---|---|---|
| 2026-04-30 04:19 | -3.77604 | -38.53042 | 86 ft | 1 kts | 12° |
| 2026-04-30 04:19 | -3.77594 | -38.53040 | 86 ft | 1 kts | 12° |
| 2026-04-30 04:19 | -3.77588 | -38.53038 | 86 ft | 2 kts | 12° |
| 2026-04-30 04:20 | -3.77565 | -38.53035 | 87 ft | 3 kts | 2° |
| 2026-04-30 04:20 | -3.77537 | -38.53039 | 86 ft | 4 kts | 337° |
| 2026-04-30 04:20 | -3.77522 | -38.53061 | 86 ft | 2 kts | 284° |
| 2026-04-30 04:20 | -3.77517 | -38.53079 | 87 ft | 2 kts | 288° |
| 2026-04-30 04:21 | -3.77511 | -38.53096 | 87 ft | 1 kts | 286° |
| 2026-04-30 04:21 | -3.77507 | -38.53110 | 87 ft | 2 kts | 285° |
| 2026-04-30 04:21 | -3.77503 | -38.53127 | 87 ft | 3 kts | 283° |
| 2026-04-30 04:21 | -3.77496 | -38.53156 | 87 ft | 5 kts | 283° |
| 2026-04-30 04:22 | -3.77495 | -38.53158 | 87 ft | 5 kts | 283° |
| 2026-04-30 04:22 | -3.77488 | -38.53187 | 88 ft | 6 kts | 286° |
| 2026-04-30 04:22 | -3.77473 | -38.53242 | 88 ft | 9 kts | 285° |
| 2026-04-30 04:22 | -3.77455 | -38.53305 | 88 ft | 9 kts | 285° |
| 2026-04-30 04:23 | -3.77440 | -38.53363 | 88 ft | 7 kts | 284° |
| 2026-04-30 04:23 | -3.77428 | -38.53410 | 88 ft | 6 kts | 284° |
| 2026-04-30 04:23 | -3.77416 | -38.53453 | 88 ft | 5 kts | 285° |
| 2026-04-30 04:23 | -3.77407 | -38.53489 | 88 ft | 5 kts | 285° |
| 2026-04-30 04:24 | -3.77406 | -38.53516 | 88 ft | 3 kts | 258° |
| 2026-04-30 04:24 | -3.77413 | -38.53531 | 88 ft | 2 kts | 230° |
| 2026-04-30 04:24 | -3.77430 | -38.53542 | 88 ft | 3 kts | 204° |
| 2026-04-30 04:24 | -3.77449 | -38.53548 | 88 ft | 2 kts | 197° |
| 2026-04-30 04:25 | -3.77466 | -38.53553 | 88 ft | 2 kts | 195° |
| 2026-04-30 04:25 | -3.77485 | -38.53559 | 88 ft | 2 kts | 194° |
| 2026-04-30 04:25 | -3.77507 | -38.53563 | 88 ft | 3 kts | 183° |
| 2026-04-30 04:25 | -3.77539 | -38.53563 | 88 ft | 5 kts | 180° |
| 2026-04-30 04:26 | -3.77586 | -38.53558 | 88 ft | 7 kts | 167° |
| 2026-04-30 04:26 | -3.77623 | -38.53544 | 89 ft | 5 kts | 154° |
| 2026-04-30 04:26 | -3.77656 | -38.53527 | 89 ft | 5 kts | 155° |
| 2026-04-30 04:26 | -3.77691 | -38.53528 | 89 ft | 4 kts | 230° |
| 2026-04-30 04:27 | -3.77701 | -38.53560 | 89 ft | 4 kts | 262° |
| 2026-04-30 04:27 | -3.77699 | -38.53589 | 90 ft | 3 kts | 279° |
| 2026-04-30 04:27 | -3.77693 | -38.53615 | 90 ft | 4 kts | 284° |
| 2026-04-30 04:27 | -3.77684 | -38.53653 | 90 ft | 6 kts | 284° |
| 2026-04-30 04:28 | -3.77671 | -38.53701 | 91 ft | 7 kts | 284° |
| 2026-04-30 04:28 | -3.77662 | -38.53735 | 91 ft | 3 kts | 281° |
| 2026-04-30 04:28 | -3.77664 | -38.53756 | 91 ft | 2 kts | 254° |
| 2026-04-30 04:28 | -3.77673 | -38.53777 | 91 ft | 3 kts | 243° |
| 2026-04-30 04:29 | -3.77686 | -38.53801 | 91 ft | 3 kts | 241° |
| 2026-04-30 04:29 | -3.77699 | -38.53824 | 91 ft | 3 kts | 239° |
| 2026-04-30 04:29 | -3.77713 | -38.53845 | 91 ft | 4 kts | 238° |
| 2026-04-30 04:29 | -3.77724 | -38.53870 | 91 ft | 3 kts | 255° |
| 2026-04-30 04:30 | -3.77724 | -38.53893 | 91 ft | 3 kts | 277° |
| 2026-04-30 04:30 | -3.77720 | -38.53920 | 91 ft | 4 kts | 281° |
| 2026-04-30 04:30 | -3.77712 | -38.53951 | 91 ft | 4 kts | 285° |
| 2026-04-30 04:30 | -3.77706 | -38.53975 | 91 ft | 2 kts | 285° |
| 2026-04-30 04:31 | -3.77703 | -38.53992 | 91 ft | 1 kts | 263° |
| 2026-04-30 04:31 | -3.77709 | -38.54005 | 91 ft | 3 kts | 236° |
| 2026-04-30 04:31 | -3.77724 | -38.54019 | 91 ft | 2 kts | 213° |
| 2026-04-30 04:31 | -3.77735 | -38.54026 | 91 ft | 1 kts | 209° |
| 2026-04-30 04:32 | -3.77748 | -38.54033 | 91 ft | 2 kts | 210° |
| 2026-04-30 04:32 | -3.77761 | -38.54040 | 91 ft | 1 kts | 208° |
| 2026-04-30 04:32 | -3.77773 | -38.54047 | 91 ft | 1 kts | 208° |
| 2026-04-30 04:32 | -3.77774 | -38.54047 | 91 ft | 0 kts | 208° |